Little Valley, Nevada Weather observations

Data are for 10 minute period ending at time listed.
 Day   Time    Ave.   Ave.  Ave.  Vector   Max.   Total    Solar   
  of    of     Air    Rel.  Wind   Wind    Wind  Precip.   Rad.    
Year   Day     Temp.  Hum.  Speed  Dir.    Gust                    
2017   (PST)    F      %     mph   deg.    mph     in.     W/m2    
------------------------------------------------------------------- 
  35   22:00   34.0    75   13.0   248     52.0   10.11       0  
  35   23:00   34.0    73    8.0   200     27.0   10.11       0  
  36    0:00   34.0    69   15.0   273     26.0   10.11       0  
  36    1:00   34.0    63   11.0   267     26.0   10.11       0  
  36    2:00   35.0    56    9.0   274     22.0   10.11       0  
  36    3:00   35.0    54    8.0   261     21.0   10.11       0  
  36    4:00   35.0    55    7.0   266     17.0   10.11       0  
  36    5:00   36.0    54    8.0   256     16.0   10.11       0  
  36    6:00   36.0    55    8.0   268     20.0   10.11       0  
  36    7:00   36.0    52    8.0   253     19.0   10.11       0  
  36    8:00   37.0    50    8.0   262     19.0   10.11      13  
  36    9:00   39.0    45    8.0   264     18.0   10.11      92  
  36   10:00   42.0    47   10.0   255     20.0   10.11     312  
  36   11:00   45.0    43   14.0   174     33.0   10.11     459  
  36   12:00   46.0    44   10.0   187     33.0   10.11     446  
  36   13:00   48.0    35   13.0   196     29.0   10.11     599  
  36   14:00   46.0    39   19.0   167     42.0   10.11     532  
  36   15:00   46.0    36   13.0   176     37.0   10.11     390  
  36   16:00   46.0    35   15.0   175     37.0   10.11     372  
  36   17:00   42.0    35   17.0   167     55.0   10.11     108  
  36   18:00   38.0    51    8.0   210     38.0   10.11      14  
  36   19:00   39.0    32   16.0   197     48.0   10.11       0  
  36   20:00   31.0    88   11.0   223     46.0   10.11       0  
  36   21:00   33.0    83   11.0   194     38.0   10.11       0  

Return to Little Valley, Nevada graphs page.


Western Regional Climate Center,wrcc@dri.edu